Norfolk, Virginia
Traffic Map
Current Weather Conditions
Norfolk, Virginia
Clear
Clear
40°
Feels Like: 35°
Wind Chill: 35° Ceiling: Unl
Heat Index: 40° Visibility: 10mi
Dew Point: 20° Wind: 7mph
Humidity: 45% Direction: 200° (SSW)
Pressure: 30.38in Gusts: 0mph
Raw Report DataKORF 222351Z AUTO 20006KT 10SM CLR 04/M07 A3038 RMK AO2 SLP286 T00441067 10106 20033 57007 TSNO
Traffic Incident Summary
Active as of:
Severity:
Category:
InformationThere was an issue retrieving the traffic information for this location. Please try a different location or try again shortly.
Advertisements
Track Severe Weather on mobile